createdAt,value
2022-10-22T00:00:18.555Z,12.90
2022-10-22T00:02:45.939Z,17.50
2022-10-22T00:05:13.642Z,9.85
2022-10-22T00:07:41.418Z,11.07
2022-10-22T00:10:09.826Z,12.43
2022-10-22T00:12:37.339Z,16.40
2022-10-22T00:15:07.045Z,15.50
2022-10-22T00:17:34.313Z,10.27
2022-10-22T00:20:01.752Z,13.02
2022-10-22T00:22:29.006Z,11.63
2022-10-22T00:24:56.240Z,14.43
2022-10-22T00:27:23.519Z,9.70
2022-10-22T00:29:51.033Z,9.65
2022-10-22T00:32:18.571Z,9.60
2022-10-22T00:34:45.925Z,10.88
2022-10-22T00:37:13.229Z,12.27
2022-10-22T00:39:40.525Z,13.73
2022-10-22T00:42:07.929Z,13.02
2022-10-22T00:45:03.034Z,14.80
2022-10-22T00:48:05.772Z,13.57
2022-10-22T00:51:00.802Z,14.00
2022-10-22T00:53:43.782Z,16.05
2022-10-22T00:56:11.968Z,14.27
2022-10-22T00:58:48.907Z,14.07
2022-10-22T01:01:24.838Z,9.40
2022-10-22T01:03:52.878Z,13.52
2022-10-22T01:06:32.934Z,18.80
2022-10-22T01:09:25.164Z,12.65
2022-10-22T01:12:26.100Z,12.80
2022-10-22T01:18:16.195Z,15.50
2022-10-22T01:21:12.642Z,14.38
2022-10-22T01:24:13.201Z,15.35
2022-10-22T01:27:16.663Z,16.63
2022-10-22T01:30:06.031Z,15.55
2022-10-22T01:32:46.229Z,14.40
2022-10-22T01:35:19.500Z,18.10
2022-10-22T01:37:56.264Z,13.30
2022-10-22T01:40:25.121Z,17.23
2022-10-22T01:43:08.021Z,14.20
2022-10-22T01:45:48.544Z,13.50
2022-10-22T01:48:44.724Z,14.50
2022-10-22T01:52:07.724Z,12.70
2022-10-22T01:55:27.783Z,18.38
2022-10-22T01:58:16.283Z,15.82
2022-10-22T02:00:59.542Z,18.20
2022-10-22T02:03:39.156Z,17.00
2022-10-22T02:06:15.924Z,15.43
2022-10-22T02:08:45.322Z,13.70
2022-10-22T02:11:14.049Z,16.38
2022-10-22T02:13:49.785Z,22.45
2022-10-22T02:16:28.482Z,14.95
2022-10-22T02:19:00.941Z,15.00
2022-10-22T02:21:28.615Z,16.13
2022-10-22T02:23:56.252Z,16.17
2022-10-22T02:26:31.344Z,16.02
2022-10-22T02:29:26.939Z,18.58
2022-10-22T02:31:55.973Z,13.93
2022-10-22T02:34:28.898Z,12.80
2022-10-22T02:36:57.505Z,15.23
2022-10-22T02:39:26.525Z,15.38
2022-10-22T02:41:55.677Z,14.25
2022-10-22T02:44:23.130Z,16.17
2022-10-22T02:46:51.581Z,11.85
2022-10-22T02:49:18.803Z,12.75
2022-10-22T02:51:46.065Z,15.18
2022-10-22T02:54:13.266Z,15.85
2022-10-22T02:56:40.572Z,15.75
2022-10-22T02:59:07.842Z,15.40
2022-10-22T03:01:35.094Z,14.30
2022-10-22T03:04:02.355Z,15.18
2022-10-22T03:06:29.560Z,17.30
2022-10-22T03:08:57.762Z,15.05
2022-10-22T03:11:25.051Z,13.15
2022-10-22T03:13:52.248Z,14.27
2022-10-22T03:16:19.599Z,15.43
2022-10-22T03:18:47.121Z,17.23
2022-10-22T03:21:53.666Z,18.73
2022-10-22T03:24:34.290Z,18.52
2022-10-22T03:27:01.529Z,16.92
2022-10-22T03:29:31.793Z,18.25
2022-10-22T03:31:59.407Z,18.50
2022-10-22T03:34:26.613Z,17.73
2022-10-22T03:36:55.100Z,17.85
2022-10-22T03:39:22.986Z,20.40
2022-10-22T03:41:52.573Z,18.55
2022-10-22T03:44:22.106Z,15.43
2022-10-22T03:46:49.366Z,15.70
2022-10-22T03:49:16.721Z,15.80
2022-10-22T03:51:44.283Z,14.80
2022-10-22T03:54:11.656Z,23.33
2022-10-22T03:56:38.908Z,18.20
2022-10-22T03:59:06.033Z,21.67
2022-10-22T04:01:33.377Z,22.17
2022-10-22T04:04:00.720Z,18.58
2022-10-22T04:06:30.388Z,20.27
2022-10-22T04:08:58.049Z,18.25
2022-10-22T04:11:25.396Z,20.85
2022-10-22T04:13:52.625Z,23.48
2022-10-22T04:16:25.014Z,27.92
2022-10-22T04:18:54.754Z,16.98
2022-10-22T04:21:22.328Z,17.58
2022-10-22T04:23:52.367Z,18.75
2022-10-22T04:26:21.166Z,19.05
2022-10-22T04:28:50.978Z,20.60
2022-10-22T04:31:23.801Z,19.00
2022-10-22T04:33:57.536Z,18.02
2022-10-22T04:36:26.467Z,18.05
2022-10-22T04:38:58.188Z,18.80
2022-10-22T04:41:32.724Z,14.77
2022-10-22T04:44:01.264Z,15.55
2022-10-22T04:46:31.292Z,15.43
2022-10-22T04:48:59.266Z,16.67
2022-10-22T04:51:27.995Z,20.33
2022-10-22T04:53:55.686Z,14.40
2022-10-22T04:56:31.396Z,17.95
2022-10-22T04:59:02.508Z,17.65
2022-10-22T05:01:40.019Z,16.23
2022-10-22T05:04:17.777Z,15.45
2022-10-22T05:06:45.608Z,14.13
2022-10-22T05:09:17.828Z,15.05
2022-10-22T05:11:49.188Z,15.15
2022-10-22T05:14:21.988Z,14.57
2022-10-22T05:16:50.617Z,16.65
2022-10-22T05:19:27.769Z,22.23
2022-10-22T05:21:58.723Z,19.13
2022-10-22T05:24:27.541Z,16.00
2022-10-22T05:26:57.204Z,15.73
2022-10-22T05:29:25.439Z,22.00
2022-10-22T05:31:53.415Z,21.40
2022-10-22T05:34:20.633Z,14.60
2022-10-22T05:36:47.802Z,16.00
2022-10-22T05:39:15.058Z,17.02
2022-10-22T05:41:42.264Z,19.05
2022-10-22T05:44:13.169Z,18.02
2022-10-22T05:46:41.005Z,15.48
2022-10-22T05:49:08.448Z,13.43
2022-10-22T05:51:37.494Z,21.73
2022-10-22T05:54:08.111Z,17.80
2022-10-22T05:56:36.937Z,12.93
2022-10-22T05:59:04.763Z,17.45
2022-10-22T06:01:35.554Z,15.18
2022-10-22T06:04:08.263Z,13.00
2022-10-22T06:06:47.543Z,13.98
2022-10-22T06:09:32.089Z,16.05
2022-10-22T06:12:00.046Z,15.90
2022-10-22T06:14:28.139Z,11.57
2022-10-22T06:16:55.901Z,16.42
2022-10-22T06:19:26.934Z,11.88
2022-10-22T06:21:54.546Z,12.68
2022-10-22T06:24:21.877Z,14.63
2022-10-22T06:26:52.721Z,16.27
2022-10-22T06:29:20.208Z,16.02
2022-10-22T06:31:47.659Z,11.18
2022-10-22T06:34:16.013Z,12.25
2022-10-22T06:36:45.983Z,10.30
2022-10-22T06:39:15.994Z,11.35
2022-10-22T06:41:43.355Z,16.85
2022-10-22T06:44:21.274Z,15.65
2022-10-22T06:46:53.433Z,14.13
2022-10-22T06:49:21.592Z,14.60
2022-10-22T06:51:53.665Z,12.38
2022-10-22T06:54:22.724Z,15.13
2022-10-22T06:56:50.050Z,11.35
2022-10-22T06:59:17.210Z,11.18
2022-10-22T07:01:44.490Z,11.38
2022-10-22T07:04:12.157Z,11.18
2022-10-22T07:06:39.419Z,12.93
2022-10-22T07:09:06.936Z,17.58
2022-10-22T07:11:44.298Z,13.80
2022-10-22T07:14:13.425Z,16.02
2022-10-22T07:16:45.761Z,9.90
2022-10-22T07:19:13.838Z,13.93
2022-10-22T07:21:41.220Z,13.52
2022-10-22T07:24:08.902Z,12.77
2022-10-22T07:26:37.062Z,12.38
2022-10-22T07:29:04.805Z,12.13
2022-10-22T07:31:32.277Z,19.75
2022-10-22T07:33:59.608Z,14.63
2022-10-22T07:36:27.199Z,12.68
2022-10-22T07:38:58.587Z,13.90
2022-10-22T07:41:28.781Z,11.13
2022-10-22T07:43:57.209Z,14.77
2022-10-22T07:46:25.629Z,16.50
2022-10-22T07:48:53.179Z,18.15
2022-10-22T07:51:20.459Z,14.85
2022-10-22T07:53:47.771Z,17.00
2022-10-22T07:56:15.083Z,13.77
2022-10-22T07:58:42.379Z,13.70
2022-10-22T08:01:09.655Z,18.63
2022-10-22T08:03:37.021Z,11.93
2022-10-22T08:06:04.561Z,16.15
2022-10-22T08:08:32.173Z,22.15
2022-10-22T08:11:01.470Z,15.50
2022-10-22T08:13:30.833Z,14.73
2022-10-22T08:16:02.025Z,16.50
2022-10-22T08:18:29.967Z,16.35
2022-10-22T08:20:58.022Z,19.23
2022-10-22T08:23:28.310Z,14.55
2022-10-22T08:25:57.359Z,16.38
2022-10-22T08:28:25.245Z,21.13
2022-10-22T08:30:52.473Z,17.42
2022-10-22T08:33:19.962Z,21.92
2022-10-22T08:35:52.038Z,22.08
2022-10-22T08:38:20.097Z,18.20
2022-10-22T08:41:03.641Z,17.75
2022-10-22T08:44:08.508Z,18.38
2022-10-22T08:47:16.442Z,19.85
2022-10-22T08:49:46.334Z,17.55
2022-10-22T08:52:18.829Z,16.83
2022-10-22T08:54:56.120Z,17.67
2022-10-22T08:57:51.414Z,18.33
2022-10-22T09:00:54.956Z,16.48
2022-10-22T09:03:35.752Z,18.13
2022-10-22T09:06:16.003Z,18.65
2022-10-22T09:08:45.835Z,21.95
2022-10-22T09:11:13.033Z,21.65
2022-10-22T09:13:45.763Z,17.83
2022-10-22T09:16:38.081Z,21.92
2022-10-22T09:19:52.572Z,22.30
2022-10-22T09:22:51.086Z,21.48
2022-10-22T09:25:28.262Z,19.85
2022-10-22T09:27:58.759Z,19.45
2022-10-22T09:30:33.985Z,17.80
2022-10-22T09:33:15.124Z,20.58
2022-10-22T09:36:03.707Z,20.60
2022-10-22T09:38:39.115Z,19.15
2022-10-22T09:41:07.027Z,21.30
2022-10-22T09:43:36.157Z,17.50
2022-10-22T09:46:15.680Z,16.10
2022-10-22T09:49:00.802Z,17.08
2022-10-22T09:51:55.978Z,26.15
2022-10-22T09:54:37.327Z,19.63
2022-10-22T09:57:04.466Z,16.23
2022-10-22T09:59:37.363Z,17.80
2022-10-22T10:02:33.500Z,18.58
2022-10-22T10:05:04.780Z,17.20
2022-10-22T10:07:34.118Z,18.90
2022-10-22T10:10:02.003Z,17.08
2022-10-22T10:13:07.293Z,15.30
2022-10-22T10:15:56.379Z,21.27
2022-10-22T10:19:00.826Z,21.42
2022-10-22T10:22:06.533Z,19.10
2022-10-22T10:25:20.175Z,22.13
2022-10-22T10:28:21.522Z,20.60
2022-10-22T10:31:09.899Z,21.58
2022-10-22T10:34:35.627Z,23.65
2022-10-22T10:37:28.044Z,20.33
2022-10-22T10:40:25.512Z,20.00
2022-10-22T10:43:25.973Z,29.90
2022-10-22T10:46:01.381Z,21.58
2022-10-22T10:48:37.613Z,24.13
2022-10-22T10:51:20.723Z,20.30
2022-10-22T10:54:26.271Z,23.58
2022-10-22T10:57:12.977Z,20.05
2022-10-22T11:00:07.597Z,24.98
2022-10-22T11:03:19.691Z,18.77
2022-10-22T11:06:04.501Z,51.05
2022-10-22T11:08:50.184Z,45.70
2022-10-22T11:11:40.487Z,33.88
2022-10-22T11:14:30.016Z,29.17
2022-10-22T11:17:06.247Z,26.60
2022-10-22T11:19:53.702Z,35.72
2022-10-22T11:22:30.443Z,31.30
2022-10-22T11:25:13.399Z,29.42
2022-10-22T11:28:05.487Z,26.40
2022-10-22T11:30:37.766Z,33.38
2022-10-22T11:33:12.928Z,42.58
2022-10-22T11:35:44.882Z,30.85
2022-10-22T11:38:22.671Z,33.80
2022-10-22T11:41:16.048Z,28.50
2022-10-22T11:44:11.056Z,29.17
2022-10-22T11:46:53.805Z,28.23
2022-10-22T11:49:46.760Z,25.67
2022-10-22T11:52:32.651Z,26.50
2022-10-22T11:55:03.927Z,24.63
2022-10-22T11:57:39.839Z,27.33
2022-10-22T12:00:46.490Z,27.80
2022-10-22T12:03:24.879Z,23.02
2022-10-22T12:06:12.969Z,21.63
2022-10-22T12:08:49.534Z,25.33
2022-10-22T12:11:24.851Z,27.80
2022-10-22T12:14:18.970Z,26.05
2022-10-22T12:16:58.336Z,21.48
2022-10-22T12:20:02.001Z,21.30
2022-10-22T12:22:37.733Z,22.40
2022-10-22T12:25:24.207Z,18.95
2022-10-22T12:27:55.087Z,21.83
2022-10-22T12:30:25.593Z,28.17
2022-10-22T12:35:29.674Z,34.28
2022-10-22T12:38:03.035Z,34.65
2022-10-22T12:40:35.544Z,20.65
2022-10-22T12:43:15.980Z,35.13
2022-10-22T12:45:49.738Z,26.27
2022-10-22T12:48:25.610Z,30.23
2022-10-22T12:51:02.261Z,29.52
2022-10-22T12:53:33.422Z,30.75
2022-10-22T12:56:07.798Z,32.33
2022-10-22T12:58:44.139Z,25.20
2022-10-22T13:01:17.781Z,31.92
2022-10-22T13:03:50.682Z,27.23
2022-10-22T13:06:21.053Z,32.42
2022-10-22T13:09:00.854Z,28.33
2022-10-22T13:11:40.791Z,29.17
2022-10-22T13:14:31.759Z,28.83
2022-10-22T13:17:11.200Z,29.98
2022-10-22T13:20:17.603Z,28.63
2022-10-22T13:23:02.720Z,27.20
2022-10-22T13:25:39.649Z,26.85
2022-10-22T13:28:19.684Z,30.15
2022-10-22T13:30:59.487Z,31.65
2022-10-22T13:33:41.262Z,38.03
2022-10-22T13:36:15.348Z,30.17
2022-10-22T13:38:44.175Z,29.67
2022-10-22T13:41:23.310Z,27.60
2022-10-22T13:43:51.005Z,35.03
2022-10-22T13:46:19.031Z,31.25
2022-10-22T13:48:48.756Z,27.55
2022-10-22T13:51:28.125Z,33.40
2022-10-22T13:53:55.676Z,30.13
2022-10-22T13:56:24.091Z,30.17
2022-10-22T13:58:51.518Z,29.95
2022-10-22T14:01:27.879Z,36.03
2022-10-22T14:04:02.085Z,30.20
2022-10-22T14:06:32.560Z,31.38
2022-10-22T14:09:11.145Z,36.50
2022-10-22T14:11:38.455Z,37.47
2022-10-22T14:14:08.889Z,34.95
2022-10-22T14:19:07.572Z,36.70
2022-10-22T14:21:38.037Z,36.22
2022-10-22T14:24:08.187Z,33.95
2022-10-22T14:26:36.931Z,32.75
2022-10-22T14:29:11.925Z,39.08
2022-10-22T14:31:42.164Z,38.97
2022-10-22T14:34:15.767Z,32.80
2022-10-22T14:36:45.887Z,36.55
2022-10-22T14:39:14.077Z,35.47
2022-10-22T14:41:42.053Z,30.70
2022-10-22T14:44:14.100Z,28.02
2022-10-22T14:46:44.093Z,33.17
2022-10-22T14:49:11.481Z,33.53
2022-10-22T14:51:38.924Z,36.15
2022-10-22T14:54:06.305Z,38.08
2022-10-22T14:56:33.657Z,33.65
2022-10-22T14:59:00.994Z,37.65
2022-10-22T15:01:28.195Z,49.60
2022-10-22T15:03:55.397Z,33.38
2022-10-22T15:06:22.606Z,32.53
2022-10-22T15:08:49.871Z,39.63
2022-10-22T15:11:17.253Z,41.03
2022-10-22T15:13:44.634Z,37.78
2022-10-22T15:16:14.845Z,42.47
2022-10-22T15:18:42.058Z,42.05
2022-10-22T15:21:19.811Z,46.00
2022-10-22T15:23:47.515Z,47.08
2022-10-22T15:26:14.734Z,40.72
2022-10-22T15:28:42.424Z,39.08
2022-10-22T15:31:14.641Z,43.63
2022-10-22T15:33:43.531Z,43.92
2022-10-22T15:36:16.508Z,44.55
2022-10-22T15:38:43.783Z,53.65
2022-10-22T15:41:13.623Z,46.88
2022-10-22T15:43:40.916Z,36.50
2022-10-22T15:46:18.346Z,34.15
2022-10-22T15:48:46.292Z,35.67
2022-10-22T15:51:18.451Z,36.63
2022-10-22T15:53:56.095Z,33.72
2022-10-22T15:56:25.406Z,32.30
2022-10-22T15:59:04.771Z,32.63
2022-10-22T16:01:35.243Z,33.83
2022-10-22T16:06:43.602Z,26.20
2022-10-22T16:09:17.656Z,31.77
2022-10-22T16:11:45.802Z,27.33
2022-10-22T16:14:15.560Z,24.05
2022-10-22T16:16:46.623Z,26.93
2022-10-22T16:19:16.968Z,24.92
2022-10-22T16:21:44.973Z,27.58
2022-10-22T16:24:13.834Z,23.02
2022-10-22T16:26:41.042Z,26.75
2022-10-22T16:29:10.659Z,23.38
2022-10-22T16:31:38.581Z,27.67
2022-10-22T16:34:06.452Z,27.88
2022-10-22T16:36:33.835Z,25.52
2022-10-22T16:39:01.033Z,23.38
2022-10-22T16:41:34.981Z,20.73
2022-10-22T16:44:07.820Z,23.70
2022-10-22T16:46:38.592Z,22.17
2022-10-22T16:51:35.243Z,23.00
2022-10-22T16:54:05.522Z,23.33
2022-10-22T16:56:36.626Z,23.90
2022-10-22T16:59:04.036Z,20.48
2022-10-22T17:01:31.449Z,21.67
2022-10-22T17:04:02.052Z,24.42
2022-10-22T17:08:56.703Z,20.90
2022-10-22T17:11:25.086Z,27.60
2022-10-22T17:13:54.861Z,26.55
2022-10-22T17:16:24.804Z,22.70
2022-10-22T17:18:54.792Z,21.55
2022-10-22T17:21:23.187Z,25.33
2022-10-22T17:23:56.567Z,21.60
2022-10-22T17:26:27.033Z,20.15
2022-10-22T17:28:55.509Z,19.38
2022-10-22T17:31:26.588Z,24.10
2022-10-22T17:33:57.046Z,21.15
2022-10-22T17:38:55.670Z,23.52
2022-10-22T17:41:26.997Z,20.77
2022-10-22T17:43:54.398Z,25.08
2022-10-22T17:46:28.014Z,22.30
2022-10-22T17:48:58.813Z,28.02
2022-10-22T17:51:29.345Z,21.20
2022-10-22T17:53:57.181Z,26.60
2022-10-22T17:56:32.393Z,24.98
2022-10-22T17:59:02.819Z,30.95
2022-10-22T18:01:34.237Z,25.80
2022-10-22T18:04:08.350Z,22.23
2022-10-22T18:06:36.339Z,26.48
2022-10-22T18:09:08.305Z,25.73
2022-10-22T18:11:39.468Z,26.50
2022-10-22T18:14:08.295Z,27.80
2022-10-22T18:16:36.374Z,29.58
2022-10-22T18:19:03.739Z,30.33
2022-10-22T18:21:31.506Z,28.45
2022-10-22T18:23:59.639Z,26.73
2022-10-22T18:26:27.484Z,29.80
2022-10-22T18:28:56.966Z,26.13
2022-10-22T18:31:26.921Z,25.88
2022-10-22T18:33:55.253Z,26.52
2022-10-22T18:36:26.290Z,26.30
2022-10-22T18:38:59.448Z,27.83
2022-10-22T18:41:28.485Z,23.88
2022-10-22T18:43:59.086Z,26.15
2022-10-22T18:48:55.991Z,27.23
2022-10-22T18:51:25.152Z,24.25
2022-10-22T18:54:05.685Z,30.58
2022-10-22T18:56:44.368Z,27.92
2022-10-22T18:59:22.782Z,28.10
2022-10-22T19:01:52.240Z,23.42
2022-10-22T19:04:19.468Z,27.88
2022-10-22T19:06:46.794Z,25.25
2022-10-22T19:09:15.916Z,28.77
2022-10-22T19:11:45.265Z,28.40
2022-10-22T19:14:14.771Z,24.65
2022-10-22T19:16:42.231Z,28.55
2022-10-22T19:19:09.541Z,28.25
2022-10-22T19:21:38.439Z,24.30
2022-10-22T19:24:06.356Z,26.20
2022-10-22T19:26:33.969Z,26.85
2022-10-22T19:29:01.752Z,24.60
2022-10-22T19:31:31.260Z,26.27
2022-10-22T19:34:02.710Z,22.83
2022-10-22T19:36:32.766Z,23.70
2022-10-22T19:39:00.784Z,26.75
2022-10-22T19:41:30.643Z,26.25
2022-10-22T19:43:59.549Z,25.02
2022-10-22T19:46:29.202Z,28.88
2022-10-22T19:48:57.498Z,23.27
2022-10-22T19:51:30.081Z,23.50
2022-10-22T19:54:03.753Z,27.52
2022-10-22T19:56:32.970Z,25.95
2022-10-22T19:59:00.679Z,31.02
2022-10-22T20:01:28.786Z,28.63
2022-10-22T20:03:56.163Z,22.73
2022-10-22T20:06:24.015Z,24.85
2022-10-22T20:08:55.172Z,24.63
2022-10-22T20:11:28.587Z,25.50
2022-10-22T20:13:57.271Z,23.85
2022-10-22T20:16:30.491Z,23.75
2022-10-22T20:19:03.980Z,23.13
2022-10-22T20:21:31.956Z,25.45
2022-10-22T20:24:00.048Z,22.42
2022-10-22T20:26:28.463Z,23.15
2022-10-22T20:28:57.220Z,24.58
2022-10-22T20:31:29.403Z,23.38
2022-10-22T20:34:01.550Z,24.10
2022-10-22T20:36:31.099Z,22.33
2022-10-22T20:39:02.428Z,26.95
2022-10-22T20:41:30.012Z,21.70
2022-10-22T20:43:57.664Z,23.27
2022-10-22T20:46:31.231Z,22.08
2022-10-22T20:49:06.141Z,25.13
2022-10-22T20:51:34.973Z,25.73
2022-10-22T20:54:02.254Z,27.70
2022-10-22T20:56:29.536Z,24.38
2022-10-22T20:59:04.813Z,25.23
2022-10-22T21:01:46.452Z,24.98
2022-10-22T21:04:14.527Z,26.83
2022-10-22T21:06:43.145Z,23.02
2022-10-22T21:09:14.783Z,25.42
2022-10-22T21:11:43.847Z,26.23
2022-10-22T21:14:13.867Z,22.63
2022-10-22T21:16:44.074Z,23.75
2022-10-22T21:19:11.779Z,25.25
2022-10-22T21:21:38.995Z,24.15
2022-10-22T21:24:06.729Z,26.23
2022-10-22T21:26:41.304Z,27.63
2022-10-22T21:29:10.278Z,20.08
2022-10-22T21:31:38.021Z,17.98
2022-10-22T21:34:05.360Z,18.15
2022-10-22T21:36:32.717Z,19.55
2022-10-22T21:39:02.168Z,23.80
2022-10-22T21:41:29.540Z,26.45
2022-10-22T21:43:56.850Z,24.98
2022-10-22T21:46:26.820Z,28.50
2022-10-22T21:49:01.543Z,23.92
2022-10-22T21:51:33.758Z,25.27
2022-10-22T21:54:01.914Z,27.25
2022-10-22T21:56:32.922Z,23.02
2022-10-22T21:59:01.480Z,22.70
2022-10-22T22:01:28.781Z,22.30
2022-10-22T22:03:56.252Z,21.58
2022-10-22T22:06:28.369Z,20.13
2022-10-22T22:08:58.274Z,24.70
2022-10-22T22:11:27.756Z,23.50
2022-10-22T22:13:57.285Z,23.35
2022-10-22T22:16:31.438Z,20.98
2022-10-22T22:19:01.781Z,22.95
2022-10-22T22:21:30.015Z,22.33
2022-10-22T22:23:58.255Z,21.60
2022-10-22T22:26:30.003Z,21.42
2022-10-22T22:28:59.782Z,23.48
2022-10-22T22:31:33.478Z,27.05
2022-10-22T22:34:16.703Z,23.55
2022-10-22T22:36:47.050Z,25.73
2022-10-22T22:39:20.573Z,23.85
2022-10-22T22:41:47.883Z,23.73
2022-10-22T22:44:15.714Z,25.50
2022-10-22T22:46:43.336Z,25.48
2022-10-22T22:49:10.620Z,24.15
2022-10-22T22:51:38.277Z,24.77
2022-10-22T22:54:05.438Z,21.92
2022-10-22T22:56:34.651Z,22.63
2022-10-22T22:59:03.709Z,23.15
2022-10-22T23:01:34.759Z,23.80
2022-10-22T23:04:04.851Z,21.30
2022-10-22T23:06:38.468Z,28.60
2022-10-22T23:09:09.426Z,20.45
2022-10-22T23:11:37.318Z,21.23
2022-10-22T23:14:07.523Z,21.02
2022-10-22T23:16:40.180Z,20.58
2022-10-22T23:19:07.877Z,20.40
2022-10-22T23:21:38.891Z,19.42
2022-10-22T23:24:15.092Z,18.92
2022-10-22T23:26:46.463Z,21.48
2022-10-22T23:29:29.463Z,20.63
2022-10-22T23:32:00.322Z,22.85
2022-10-22T23:34:29.691Z,19.48
2022-10-22T23:36:58.276Z,20.80
2022-10-22T23:39:28.392Z,21.58
2022-10-22T23:41:55.824Z,23.70
2022-10-22T23:44:24.125Z,21.58
2022-10-22T23:46:51.762Z,20.52
2022-10-22T23:49:19.057Z,21.35
2022-10-22T23:51:46.499Z,18.60
2022-10-22T23:54:16.542Z,20.05
2022-10-22T23:56:43.821Z,22.92
2022-10-22T23:59:11.249Z,20.35
